Time;durP1;ratioP1;P1;durP2;ratioP2;P2;SDS_P1;SDS_P2;PMS_P1;PMS_P2;Temp;Humidity;BMP_temperature;BMP_pressure;BME280_temperature;BME280_humidity;BME280_pressure;Samples;Min_cycle;Max_cycle;Signal;HPM_P1;HPM_P2
2022/09/01 00:02:14;;;;;;;28.88;23.05;;;;;;;;;;5088864;28;20031;-78
2022/09/01 00:04:41;;;;;;;23.58;19.70;;;;;;;;;;5097155;28;20012;-78
2022/09/01 00:07:08;;;;;;;25.98;22.45;;;;;;;;;;5084609;28;20024;-79
2022/09/01 00:09:34;;;;;;;22.15;18.42;;;;;;;;;;5098998;28;20015;-78
2022/09/01 00:12:01;;;;;;;23.52;18.83;;;;;;;;;;5096946;28;20115;-78
2022/09/01 00:14:30;;;;;;;21.13;19.02;;;;;;;;;;5096849;28;20016;-78
2022/09/01 00:16:56;;;;;;;21.80;18.63;;;;;;;;;;5096988;28;20469;-78
2022/09/01 00:19:23;;;;;;;22.25;17.13;;;;;;;;;;5099935;28;20143;-79
2022/09/01 00:21:49;;;;;;;19.58;17.40;;;;;;;;;;5086341;28;20122;-78
2022/09/01 00:24:16;;;;;;;21.48;18.40;;;;;;;;;;5096921;28;20035;-78
2022/09/01 00:26:43;;;;;;;19.90;17.80;;;;;;;;;;5115117;28;20506;-78
2022/09/01 00:29:09;;;;;;;23.90;16.77;;;;;;;;;;5115048;28;20062;-78
2022/09/01 00:31:35;;;;;;;24.02;15.32;;;;;;;;;;5091366;28;20039;-78
2022/09/01 00:34:01;;;;;;;25.90;16.02;;;;;;;;;;5105814;28;20447;-78
2022/09/01 00:36:27;;;;;;;20.13;15.15;;;;;;;;;;5093264;28;20031;-79
2022/09/01 00:38:53;;;;;;;16.60;14.20;;;;;;;;;;5111471;28;20048;-78
2022/09/01 00:41:23;;;;;;;18.15;14.57;;;;;;;;;;5114688;28;20110;-79
2022/09/01 00:43:53;;;;;;;14.52;13.15;;;;;;;;;;5082120;28;20471;-78
2022/09/01 00:46:24;;;;;;;22.50;17.13;;;;;;;;;;5096162;28;20125;-78
2022/09/01 00:48:55;;;;;;;19.48;16.08;;;;;;;;;;5112865;28;20032;-78
2022/09/01 00:51:22;;;;;;;23.65;15.07;;;;;;;;;;5084458;28;20389;-79
2022/09/01 00:53:48;;;;;;;21.13;16.45;;;;;;;;;;5096374;28;20020;-79
2022/09/01 00:56:15;;;;;;;19.50;14.98;;;;;;;;;;5082657;28;20039;-79
2022/09/01 00:58:42;;;;;;;16.60;14.88;;;;;;;;;;5095281;28;20028;-79
2022/09/01 01:01:09;;;;;;;25.55;15.60;;;;;;;;;;5094568;28;20032;-80
2022/09/01 01:03:35;;;;;;;29.55;15.85;;;;;;;;;;5085292;28;20048;-79
2022/09/01 01:06:05;;;;;;;20.83;15.88;;;;;;;;;;5090042;28;20034;-79
2022/09/01 01:08:32;;;;;;;19.95;14.95;;;;;;;;;;5085531;28;20019;-80
2022/09/01 01:11:20;;;;;;;19.45;15.73;;;;;;;;;;5081908;28;20520;-82
2022/09/01 01:13:55;;;;;;;19.65;15.48;;;;;;;;;;5096246;28;20046;-80
2022/09/01 01:16:22;;;;;;;23.00;20.40;;;;;;;;;;5096070;28;20511;-79
2022/09/01 01:18:48;;;;;;;41.05;29.80;;;;;;;;;;5096290;28;20015;-80
2022/09/01 01:24:22;;;;;;;23.45;17.17;;;;;;;;;;5114175;28;20042;-79
2022/09/01 01:26:48;;;;;;;16.83;14.63;;;;;;;;;;5095867;28;20016;-79
2022/09/01 01:29:16;;;;;;;21.55;19.25;;;;;;;;;;5095943;28;20055;-79
2022/09/01 01:31:42;;;;;;;25.40;17.67;;;;;;;;;;5095416;28;20036;-79
2022/09/01 01:34:08;;;;;;;18.48;15.15;;;;;;;;;;5095501;28;20470;-79
2022/09/01 01:36:36;;;;;;;17.65;15.43;;;;;;;;;;5092843;28;20382;-78
2022/09/01 01:39:10;;;;;;;18.38;14.35;;;;;;;;;;5093934;28;20466;-79
2022/09/01 01:41:39;;;;;;;19.38;15.05;;;;;;;;;;5113606;28;20020;-78
2022/09/01 01:44:06;;;;;;;23.58;14.93;;;;;;;;;;5095345;28;20019;-77
2022/09/01 01:46:33;;;;;;;21.90;15.35;;;;;;;;;;5089327;28;20028;-78
2022/09/01 01:49:01;;;;;;;16.95;15.23;;;;;;;;;;5092175;28;20100;-78
2022/09/01 01:51:31;;;;;;;21.00;14.77;;;;;;;;;;5074430;28;20427;-78
2022/09/01 01:54:00;;;;;;;21.40;15.55;;;;;;;;;;5107265;28;20440;-78
2022/09/01 01:56:26;;;;;;;24.80;17.23;;;;;;;;;;5082799;28;20020;-78
2022/09/01 01:58:55;;;;;;;27.88;19.42;;;;;;;;;;5074786;28;20051;-79
2022/09/01 02:01:30;;;;;;;20.98;18.85;;;;;;;;;;5074783;28;20039;-78
2022/09/01 02:03:57;;;;;;;25.88;19.45;;;;;;;;;;5088589;28;20023;-78
2022/09/01 02:06:24;;;;;;;21.48;18.00;;;;;;;;;;5074773;28;20352;-80
2022/09/01 02:08:51;;;;;;;26.40;19.85;;;;;;;;;;5074557;28;20131;-78
2022/09/01 02:11:18;;;;;;;24.17;20.90;;;;;;;;;;5092498;28;20023;-78
2022/09/01 02:13:45;;;;;;;34.17;21.33;;;;;;;;;;5084117;28;20020;-77
2022/09/01 02:16:12;;;;;;;24.35;21.75;;;;;;;;;;5088686;28;20110;-77
2022/09/01 02:18:47;;;;;;;26.70;22.75;;;;;;;;;;5074637;28;20024;-77
2022/09/01 02:21:17;;;;;;;33.10;24.20;;;;;;;;;;5088396;28;20441;-77
2022/09/01 02:23:44;;;;;;;26.45;23.60;;;;;;;;;;5101181;28;20023;-77
2022/09/01 02:26:12;;;;;;;27.70;23.92;;;;;;;;;;5112592;28;20026;-77
2022/09/01 02:28:41;;;;;;;25.42;22.92;;;;;;;;;;5094556;28;20019;-78
2022/09/01 02:31:08;;;;;;;35.70;23.58;;;;;;;;;;5094546;28;20019;-78
2022/09/01 02:33:36;;;;;;;25.77;23.08;;;;;;;;;;5074645;28;20020;-78
2022/09/01 02:36:04;;;;;;;28.73;24.20;;;;;;;;;;5094462;28;20019;-77
2022/09/01 02:38:32;;;;;;;25.40;22.60;;;;;;;;;;5089855;28;20040;-78
2022/09/01 02:41:00;;;;;;;30.60;23.33;;;;;;;;;;5080887;28;20023;-78
2022/09/01 02:43:27;;;;;;;32.10;23.83;;;;;;;;;;5094308;28;20024;-78
2022/09/01 02:45:56;;;;;;;27.63;22.00;;;;;;;;;;5079835;28;20031;-78
2022/09/01 02:48:25;;;;;;;27.48;23.00;;;;;;;;;;5094587;28;20157;-78
2022/09/01 02:50:52;;;;;;;29.02;24.05;;;;;;;;;;5108535;28;20070;-78
2022/09/01 02:53:19;;;;;;;27.63;23.65;;;;;;;;;;5084406;28;20020;-78
2022/09/01 02:55:45;;;;;;;38.15;24.33;;;;;;;;;;5094218;28;20024;-78
2022/09/01 02:58:15;;;;;;;29.30;23.98;;;;;;;;;;5088088;28;20106;-78
2022/09/01 03:00:42;;;;;;;26.75;23.88;;;;;;;;;;5094057;28;20027;-78
2022/09/01 03:03:08;;;;;;;27.35;24.77;;;;;;;;;;5098156;28;20027;-77
2022/09/01 03:05:35;;;;;;;30.63;26.85;;;;;;;;;;5116527;28;20470;-77
2022/09/01 03:08:06;;;;;;;29.77;26.52;;;;;;;;;;5078517;28;20022;-78
2022/09/01 03:10:36;;;;;;;30.80;26.88;;;;;;;;;;5078078;28;20030;-78
2022/09/01 03:39:36;;;;;;;44.42;35.28;;;;;;;;;;5130003;27;20387;-82
2022/09/01 03:42:02;;;;;;;60.22;41.55;;;;;;;;;;5093152;28;20043;-78
2022/09/01 03:44:28;;;;;;;105.78;49.80;;;;;;;;;;5115164;28;20055;-79
2022/09/01 03:46:57;;;;;;;86.28;55.25;;;;;;;;;;5106868;28;20016;-79
2022/09/01 03:49:27;;;;;;;234.32;76.75;;;;;;;;;;5091162;28;20024;-78
2022/09/01 03:51:53;;;;;;;380.00;90.25;;;;;;;;;;5113473;28;20027;-78
2022/09/01 03:54:23;;;;;;;171.82;70.75;;;;;;;;;;5105032;28;20024;-78
2022/09/01 03:56:50;;;;;;;171.10;78.85;;;;;;;;;;5091018;28;20020;-78
2022/09/01 03:59:16;;;;;;;107.40;67.82;;;;;;;;;;5124606;27;20020;-78
2022/09/01 04:01:42;;;;;;;90.07;66.07;;;;;;;;;;5090315;28;20027;-80
2022/09/01 04:04:15;;;;;;;78.38;56.50;;;;;;;;;;5090096;28;20049;-78
2022/09/01 04:06:42;;;;;;;67.13;52.55;;;;;;;;;;5089769;28;20387;-80
2022/09/01 04:09:09;;;;;;;56.60;49.58;;;;;;;;;;5117945;28;20068;-79
2022/09/01 04:11:38;;;;;;;52.53;42.85;;;;;;;;;;5094111;28;20020;-78
2022/09/01 04:14:04;;;;;;;45.53;40.60;;;;;;;;;;5124110;28;20027;-79
2022/09/01 04:19:24;;;;;;;51.10;44.72;;;;;;;;;;5108308;28;20055;-76
2022/09/01 04:21:52;;;;;;;50.58;41.72;;;;;;;;;;5124643;28;20023;-77
2022/09/01 04:24:19;;;;;;;48.30;42.42;;;;;;;;;;5120309;28;20374;-79
2022/09/01 04:26:47;;;;;;;52.15;40.92;;;;;;;;;;5107850;28;20020;-79
2022/09/01 04:29:13;;;;;;;53.85;42.05;;;;;;;;;;5108245;28;20084;-79
2022/09/01 04:31:41;;;;;;;50.03;40.00;;;;;;;;;;5107534;28;20477;-79
2022/09/01 04:34:11;;;;;;;47.63;37.60;;;;;;;;;;5107583;28;20896;-79
2022/09/01 04:36:39;;;;;;;42.13;37.72;;;;;;;;;;5107197;28;20093;-79
2022/09/01 04:39:07;;;;;;;49.28;39.05;;;;;;;;;;5115539;27;20076;-79
2022/09/01 04:41:34;;;;;;;49.35;38.42;;;;;;;;;;5073527;28;20031;-78
2022/09/01 04:44:03;;;;;;;50.67;37.67;;;;;;;;;;5108272;27;20455;-78
2022/09/01 04:46:30;;;;;;;48.10;38.47;;;;;;;;;;5073853;28;20016;-77
2022/09/01 04:48:56;;;;;;;44.60;39.25;;;;;;;;;;5072733;28;20074;-79
2022/09/01 04:51:26;;;;;;;43.28;34.72;;;;;;;;;;5072846;28;20066;-78
2022/09/01 04:53:54;;;;;;;37.00;33.03;;;;;;;;;;5075242;28;20041;-77
2022/09/01 04:56:21;;;;;;;40.17;35.95;;;;;;;;;;5073734;28;20016;-77
2022/09/01 04:58:48;;;;;;;42.45;37.58;;;;;;;;;;5073527;28;20021;-77
2022/09/01 05:01:18;;;;;;;43.17;38.45;;;;;;;;;;5073112;28;20066;-77
2022/09/01 05:03:44;;;;;;;40.47;31.95;;;;;;;;;;5074123;28;20424;-79
2022/09/01 05:06:18;;;;;;;36.00;31.13;;;;;;;;;;5073564;28;20020;-79
2022/09/01 05:08:45;;;;;;;37.00;32.10;;;;;;;;;;5085891;28;20497;-77
2022/09/01 05:11:11;;;;;;;39.97;33.80;;;;;;;;;;5073290;28;20048;-77
2022/09/01 05:13:38;;;;;;;40.85;34.42;;;;;;;;;;5071606;28;20478;-79
2022/09/01 05:16:11;;;;;;;42.63;33.47;;;;;;;;;;5073257;28;20040;-77
2022/09/01 05:18:38;;;;;;;;;;;;;;;;;;5073639;28;20017;-79
2022/09/01 05:21:08;;;;;;;42.45;31.02;;;;;;;;;;5071851;28;19959;-78
2022/09/01 05:23:35;;;;;;;37.35;32.97;;;;;;;;;;5075283;28;20028;-75
2022/09/01 05:26:05;;;;;;;39.10;32.08;;;;;;;;;;5083539;28;20017;-78
2022/09/01 05:28:31;;;;;;;45.83;32.15;;;;;;;;;;5105669;28;20470;-75
2022/09/01 05:31:00;;;;;;;37.83;32.63;;;;;;;;;;5073621;28;20386;-76
2022/09/01 05:33:27;;;;;;;44.88;37.53;;;;;;;;;;5073307;28;20024;-79
2022/09/01 05:35:55;;;;;;;43.83;38.42;;;;;;;;;;5072251;28;20528;-78
2022/09/01 05:38:21;;;;;;;45.20;35.40;;;;;;;;;;5065138;28;20052;-77
2022/09/01 05:40:56;;;;;;;44.00;36.38;;;;;;;;;;5061532;28;20013;-79
2022/09/01 05:43:26;;;;;;;42.20;37.47;;;;;;;;;;5052338;28;20025;-78
2022/09/01 05:45:53;;;;;;;45.45;37.28;;;;;;;;;;5061314;28;20025;-79
2022/09/01 05:48:20;;;;;;;40.60;35.72;;;;;;;;;;5070511;28;20071;-79
2022/09/01 05:50:48;;;;;;;38.53;34.42;;;;;;;;;;5050535;28;20113;-79
2022/09/01 05:53:16;;;;;;;40.67;34.63;;;;;;;;;;5066887;28;20024;-80
2022/09/01 05:55:46;;;;;;;41.60;32.47;;;;;;;;;;5051353;28;20017;-79
2022/09/01 05:58:13;;;;;;;38.83;31.73;;;;;;;;;;5051212;28;20029;-79
2022/09/01 06:00:45;;;;;;;33.13;29.08;;;;;;;;;;5049806;28;20033;-79
2022/09/01 06:03:13;;;;;;;37.47;30.38;;;;;;;;;;5051167;28;20119;-79
2022/09/01 06:05:41;;;;;;;39.75;28.17;;;;;;;;;;5051207;28;20025;-78
2022/09/01 06:08:09;;;;;;;33.40;29.23;;;;;;;;;;5052253;28;20037;-79
2022/09/01 06:10:39;;;;;;;35.60;31.15;;;;;;;;;;5059061;28;20021;-79
2022/09/01 06:13:09;;;;;;;35.25;30.67;;;;;;;;;;5056150;28;20471;-78
2022/09/01 06:15:37;;;;;;;38.65;31.65;;;;;;;;;;5052488;28;20040;-79
2022/09/01 06:18:07;;;;;;;36.17;32.55;;;;;;;;;;5052077;28;20151;-77
2022/09/01 06:20:34;;;;;;;42.92;35.67;;;;;;;;;;5050314;28;20032;-79
2022/09/01 06:23:01;;;;;;;47.30;36.22;;;;;;;;;;5077794;28;20025;-80
2022/09/01 06:25:29;;;;;;;40.88;32.47;;;;;;;;;;5051999;28;20467;-79
2022/09/01 06:27:56;;;;;;;38.88;31.85;;;;;;;;;;5066564;28;20040;-80
2022/09/01 06:30:25;;;;;;;48.20;36.70;;;;;;;;;;5062223;28;20464;-79
2022/09/01 06:32:51;;;;;;;43.75;36.05;;;;;;;;;;5065860;28;20378;-79
2022/09/01 06:35:17;;;;;;;44.22;36.42;;;;;;;;;;5050573;28;20480;-80
2022/09/01 06:37:44;;;;;;;40.38;35.47;;;;;;;;;;5050013;28;20060;-81
2022/09/01 06:40:15;;;;;;;43.13;34.97;;;;;;;;;;5055154;28;20021;-79
2022/09/01 06:42:46;;;;;;;45.78;36.00;;;;;;;;;;5059828;28;20091;-79
2022/09/01 06:45:13;;;;;;;39.08;34.83;;;;;;;;;;5051398;28;20055;-80
2022/09/01 06:47:43;;;;;;;40.35;33.72;;;;;;;;;;5051469;28;20128;-79
2022/09/01 06:50:09;;;;;;;36.53;32.65;;;;;;;;;;5051514;28;20021;-78
2022/09/01 06:52:39;;;;;;;33.70;30.30;;;;;;;;;;5050180;28;20017;-77
2022/09/01 06:55:05;;;;;;;36.50;30.40;;;;;;;;;;5052086;28;20021;-78
2022/09/01 06:57:31;;;;;;;39.28;32.38;;;;;;;;;;5062154;28;20017;-77
2022/09/01 06:59:58;;;;;;;35.75;31.92;;;;;;;;;;5050263;28;20028;-78
2022/09/01 07:02:24;;;;;;;34.53;30.05;;;;;;;;;;5052696;28;20471;-78
2022/09/01 07:04:51;;;;;;;32.70;29.38;;;;;;;;;;5050153;28;20028;-80
2022/09/01 07:07:17;;;;;;;32.47;28.33;;;;;;;;;;5055657;28;20064;-78
2022/09/01 07:09:43;;;;;;;39.25;29.45;;;;;;;;;;5059658;28;20032;-78
2022/09/01 07:12:09;;;;;;;37.05;28.77;;;;;;;;;;5066111;28;20020;-76
2022/09/01 07:14:35;;;;;;;35.80;29.55;;;;;;;;;;5061645;28;20025;-79
2022/09/01 07:17:01;;;;;;;36.65;30.17;;;;;;;;;;5051153;28;20025;-78
2022/09/01 07:19:27;;;;;;;36.65;28.05;;;;;;;;;;5057529;28;20048;-77
2022/09/01 07:21:54;;;;;;;36.20;29.45;;;;;;;;;;5057422;28;20052;-77
2022/09/01 07:24:20;;;;;;;40.50;29.17;;;;;;;;;;5055101;28;20025;-79
2022/09/01 07:26:49;;;;;;;29.23;26.20;;;;;;;;;;5065904;28;20024;-80
2022/09/01 07:29:18;;;;;;;33.13;26.30;;;;;;;;;;5056465;28;20040;-79
2022/09/01 07:31:44;;;;;;;31.60;26.98;;;;;;;;;;5056950;28;20016;-78
2022/09/01 07:34:12;;;;;;;31.85;27.30;;;;;;;;;;5059609;28;20025;-80
2022/09/01 07:36:41;;;;;;;33.13;23.58;;;;;;;;;;5049674;28;20100;-79
2022/09/01 07:39:11;;;;;;;29.83;24.52;;;;;;;;;;5084436;28;20055;-79
2022/09/01 07:41:38;;;;;;;30.27;25.17;;;;;;;;;;5106805;28;20063;-78
2022/09/01 07:44:07;;;;;;;32.38;25.08;;;;;;;;;;5073310;28;20039;-79
2022/09/01 07:46:33;;;;;;;32.67;25.52;;;;;;;;;;5071039;28;20036;-79
2022/09/01 07:49:00;;;;;;;29.05;23.75;;;;;;;;;;5072996;28;20105;-80
2022/09/01 07:51:27;;;;;;;26.52;23.02;;;;;;;;;;5072582;28;20024;-79
2022/09/01 07:53:53;;;;;;;26.85;22.50;;;;;;;;;;5091126;28;20023;-79
2022/09/01 07:56:20;;;;;;;24.85;22.23;;;;;;;;;;5090930;28;20089;-78
2022/09/01 07:58:47;;;;;;;26.10;23.23;;;;;;;;;;5097136;28;20021;-77
2022/09/01 08:01:17;;;;;;;25.30;22.33;;;;;;;;;;5052865;28;20025;-79
2022/09/01 08:03:44;;;;;;;26.60;21.90;;;;;;;;;;5090954;28;20489;-77
2022/09/01 08:06:11;;;;;;;21.83;19.70;;;;;;;;;;5083734;28;20020;-80
2022/09/01 08:08:38;;;;;;;25.65;18.52;;;;;;;;;;5074051;28;20042;-81
2022/09/01 08:11:05;;;;;;;25.88;20.42;;;;;;;;;;5085405;28;20032;-81
2022/09/01 08:13:31;;;;;;;22.35;20.15;;;;;;;;;;5091219;28;20493;-79
2022/09/01 08:15:57;;;;;;;24.63;18.88;;;;;;;;;;5094630;28;20066;-80
2022/09/01 08:18:23;;;;;;;25.15;18.60;;;;;;;;;;5098603;28;20128;-79
2022/09/01 08:20:50;;;;;;;21.40;18.50;;;;;;;;;;5086269;28;20097;-80
2022/09/01 08:23:25;;;;;;;21.35;19.25;;;;;;;;;;5102020;28;20025;-78
2022/09/01 08:25:51;;;;;;;18.23;16.33;;;;;;;;;;5076870;28;20052;-80
2022/09/01 08:28:17;;;;;;;22.08;16.58;;;;;;;;;;5077131;28;20547;-77
2022/09/01 08:30:44;;;;;;;21.85;16.50;;;;;;;;;;5064744;28;20056;-78
2022/09/01 08:33:10;;;;;;;19.15;15.63;;;;;;;;;;5106409;28;20024;-78
2022/09/01 08:35:40;;;;;;;16.80;15.15;;;;;;;;;;5104297;28;20020;-79
2022/09/01 08:38:06;;;;;;;19.35;15.88;;;;;;;;;;5081807;28;20044;-79
2022/09/01 08:40:32;;;;;;;19.95;17.30;;;;;;;;;;5096462;28;20481;-78
2022/09/01 08:43:04;;;;;;;18.73;16.80;;;;;;;;;;5088778;28;20493;-78
2022/09/01 08:45:32;;;;;;;23.00;15.90;;;;;;;;;;5086399;28;20073;-78
2022/09/01 08:48:05;;;;;;;20.63;17.27;;;;;;;;;;5093913;28;20429;-79
2022/09/01 08:50:32;;;;;;;19.90;18.00;;;;;;;;;;5106513;28;20078;-78
2022/09/01 08:53:01;;;;;;;27.38;24.58;;;;;;;;;;5098692;28;20048;-78
2022/09/01 08:55:43;;;;;;;29.23;26.30;;;;;;;;;;5106852;28;20020;-79
2022/09/01 08:58:09;;;;;;;35.33;31.73;;;;;;;;;;5111296;28;20028;-78
2022/09/01 09:00:43;;;;;;;35.00;31.85;;;;;;;;;;5088192;28;20573;-79
2022/09/01 09:03:16;;;;;;;39.30;35.53;;;;;;;;;;5123871;27;20069;-79
2022/09/01 09:05:42;;;;;;;40.30;36.37;;;;;;;;;;5083910;28;20475;-78
2022/09/01 09:08:26;;;;;;;38.97;33.20;;;;;;;;;;5100351;28;20062;-78
2022/09/01 09:10:56;;;;;;;40.00;36.20;;;;;;;;;;5089025;28;20244;-76
2022/09/01 09:13:28;;;;;;;41.42;36.95;;;;;;;;;;5069243;28;21548;-79
2022/09/01 09:16:27;;;;;;;42.30;38.38;;;;;;;;;;5108945;28;20024;-79
2022/09/01 09:19:12;;;;;;;39.25;35.13;;;;;;;;;;5051568;28;20032;-79
2022/09/01 09:21:42;;;;;;;43.42;39.10;;;;;;;;;;5103716;28;20062;-79
2022/09/01 09:24:45;;;;;;;44.47;34.47;;;;;;;;;;5110534;28;20024;-77
2022/09/01 09:27:15;;;;;;;39.15;34.97;;;;;;;;;;5122721;27;20036;-79
2022/09/01 09:29:41;;;;;;;42.47;34.30;;;;;;;;;;5078300;28;20032;-77
2022/09/01 09:32:09;;;;;;;39.70;35.65;;;;;;;;;;5075595;28;20016;-80
2022/09/01 09:34:42;;;;;;;43.72;31.52;;;;;;;;;;5097735;28;20356;-78
2022/09/01 09:37:20;;;;;;;37.90;33.90;;;;;;;;;;5075589;28;20024;-79
2022/09/01 09:40:01;;;;;;;37.47;33.72;;;;;;;;;;5061299;28;20094;-77
2022/09/01 09:42:27;;;;;;;36.63;32.63;;;;;;;;;;5079367;28;20020;-76
2022/09/01 09:44:54;;;;;;;46.72;34.30;;;;;;;;;;5085372;28;20023;-77
2022/09/01 09:47:40;;;;;;;36.17;32.47;;;;;;;;;;5089195;28;20027;-79
2022/09/01 09:50:16;;;;;;;37.20;33.22;;;;;;;;;;5055689;28;20040;-78
2022/09/01 09:52:45;;;;;;;38.47;34.30;;;;;;;;;;5104984;28;20031;-77
2022/09/01 09:55:18;;;;;;;39.45;35.15;;;;;;;;;;5075210;28;20096;-78
2022/09/01 09:57:44;;;;;;;44.40;32.85;;;;;;;;;;5075057;28;20094;-78
2022/09/01 10:00:16;;;;;;;45.00;32.78;;;;;;;;;;5083393;28;20474;-78
2022/09/01 10:02:43;;;;;;;35.28;30.75;;;;;;;;;;5095101;28;20035;-79
2022/09/01 10:05:28;;;;;;;36.30;32.63;;;;;;;;;;5099918;28;20020;-78
2022/09/01 10:07:54;;;;;;;37.80;33.67;;;;;;;;;;5079841;28;20067;-78
2022/09/01 10:10:41;;;;;;;36.78;32.38;;;;;;;;;;5075018;28;20027;-80
2022/09/01 10:13:09;;;;;;;35.63;32.03;;;;;;;;;;5123299;27;20027;-78
2022/09/01 10:15:36;;;;;;;34.00;30.40;;;;;;;;;;5093415;28;20222;-78
2022/09/01 10:18:28;;;;;;;36.15;32.42;;;;;;;;;;5093092;28;20111;-80
2022/09/01 10:21:00;;;;;;;38.45;34.25;;;;;;;;;;5073090;28;20517;-79
2022/09/01 10:23:31;;;;;;;38.42;34.20;;;;;;;;;;5122985;27;20434;-77
2022/09/01 10:26:01;;;;;;;41.40;35.05;;;;;;;;;;5074806;28;20085;-78
2022/09/01 10:28:29;;;;;;;38.00;32.80;;;;;;;;;;5111501;27;20159;-80
2022/09/01 10:30:57;;;;;;;37.63;33.67;;;;;;;;;;5108454;28;20061;-79
2022/09/01 10:33:23;;;;;;;42.28;35.78;;;;;;;;;;5086468;28;20020;-78
2022/09/01 10:35:51;;;;;;;39.20;35.00;;;;;;;;;;5070973;28;20024;-79
2022/09/01 10:38:19;;;;;;;43.72;35.10;;;;;;;;;;5073980;28;20545;-79
2022/09/01 10:40:49;;;;;;;42.20;36.05;;;;;;;;;;5086153;28;20155;-77
2022/09/01 10:43:27;;;;;;;39.47;32.38;;;;;;;;;;5092389;28;20347;-77
2022/09/01 10:45:53;;;;;;;46.42;35.63;;;;;;;;;;5092240;28;20461;-76
2022/09/01 10:48:19;;;;;;;45.47;35.55;;;;;;;;;;5092115;28;20032;-78
2022/09/01 10:50:46;;;;;;;42.67;35.22;;;;;;;;;;5073374;28;20950;-78
2022/09/01 10:53:31;;;;;;;42.45;30.92;;;;;;;;;;5107824;28;20120;-81
2022/09/01 10:56:06;;;;;;;40.22;34.90;;;;;;;;;;5102708;28;20023;-81
2022/09/01 10:58:39;;;;;;;40.97;34.28;;;;;;;;;;5081312;28;20024;-84
2022/09/01 11:01:05;;;;;;;37.92;32.67;;;;;;;;;;5113760;27;20031;-81
2022/09/01 11:03:31;;;;;;;41.25;32.78;;;;;;;;;;5069120;28;20020;-80
2022/09/01 11:05:57;;;;;;;40.50;32.92;;;;;;;;;;5127949;27;20015;-80
2022/09/01 11:08:27;;;;;;;47.63;32.83;;;;;;;;;;5090410;28;20536;-82
2022/09/01 11:11:03;;;;;;;42.55;34.38;;;;;;;;;;5112369;27;20175;-79
2022/09/01 11:13:47;;;;;;;40.97;32.92;;;;;;;;;;5108588;27;20028;-79
2022/09/01 11:16:26;;;;;;;41.45;32.15;;;;;;;;;;5079793;28;20039;-82
2022/09/01 11:18:52;;;;;;;40.92;33.30;;;;;;;;;;5061647;28;20028;-87
2022/09/01 11:21:25;;;;;;;39.50;33.03;;;;;;;;;;5076429;28;20020;-84
2022/09/01 11:24:11;;;;;;;38.95;31.23;;;;;;;;;;5102950;28;20082;-82
2022/09/01 11:26:46;;;;;;;38.35;30.88;;;;;;;;;;5063037;28;20051;-82
2022/09/01 11:29:31;;;;;;;39.70;33.38;;;;;;;;;;5101385;28;20067;-84
2022/09/01 11:31:58;;;;;;;45.15;32.58;;;;;;;;;;5091718;28;20082;-84
2022/09/01 11:34:26;;;;;;;40.78;34.00;;;;;;;;;;5092667;28;20076;-82
2022/09/01 11:36:59;;;;;;;43.08;33.95;;;;;;;;;;5115612;28;20024;-81
2022/09/01 11:39:30;;;;;;;40.60;33.60;;;;;;;;;;5116413;28;20048;-84
2022/09/01 11:42:14;;;;;;;37.88;31.63;;;;;;;;;;5115460;28;20023;-82
2022/09/01 11:44:58;;;;;;;37.78;31.33;;;;;;;;;;5108101;28;20032;-84
2022/09/01 11:47:27;;;;;;;37.17;31.17;;;;;;;;;;5064773;28;20097;-82
2022/09/01 11:49:53;;;;;;;34.42;30.67;;;;;;;;;;5099234;28;20020;-84
2022/09/01 11:52:20;;;;;;;35.67;31.88;;;;;;;;;;5096614;28;20021;-82
2022/09/01 11:54:46;;;;;;;32.78;29.40;;;;;;;;;;5096793;28;20028;-84
2022/09/01 11:57:20;;;;;;;34.42;30.85;;;;;;;;;;5084579;28;20111;-84
2022/09/01 11:59:46;;;;;;;39.22;33.55;;;;;;;;;;5094536;28;20473;-84
2022/09/01 12:02:21;;;;;;;39.53;31.85;;;;;;;;;;5082524;28;20021;-84
2022/09/01 12:04:49;;;;;;;41.90;32.38;;;;;;;;;;5096603;28;20023;-85
2022/09/01 12:07:24;;;;;;;36.60;32.75;;;;;;;;;;5126149;28;20427;-83
2022/09/01 12:09:51;;;;;;;37.60;31.55;;;;;;;;;;5133470;28;20028;-80
2022/09/01 12:12:36;;;;;;;40.70;32.85;;;;;;;;;;5102906;28;20643;-84
2022/09/01 12:15:22;;;;;;;42.50;33.47;;;;;;;;;;5112600;28;20039;-84
2022/09/01 12:17:49;;;;;;;43.50;34.42;;;;;;;;;;5094336;28;20493;-83
2022/09/01 12:20:19;;;;;;;40.72;33.97;;;;;;;;;;5098124;28;20657;-86
2022/09/01 12:22:48;;;;;;;34.63;29.70;;;;;;;;;;5077101;28;20034;-86
2022/09/01 12:25:33;;;;;;;37.28;32.42;;;;;;;;;;5090668;28;20466;-85
2022/09/01 12:28:04;;;;;;;38.65;32.17;;;;;;;;;;5110799;27;20086;-84
2022/09/01 12:30:34;;;;;;;36.75;31.63;;;;;;;;;;5080636;28;20016;-86
2022/09/01 12:33:00;;;;;;;38.30;34.17;;;;;;;;;;5126347;27;20026;-85
2022/09/01 12:35:27;;;;;;;38.10;30.48;;;;;;;;;;5100519;28;20099;-86
2022/09/01 12:38:13;;;;;;;39.60;29.50;;;;;;;;;;5114121;28;20512;-87
2022/09/01 12:40:39;;;;;;;36.85;30.35;;;;;;;;;;5096699;28;20013;-81
2022/09/01 12:43:05;;;;;;;25.63;22.67;;;;;;;;;;5074584;28;20502;-81
2022/09/01 12:45:42;;;;;;;24.88;21.35;;;;;;;;;;5105831;28;20028;-84
2022/09/01 12:48:29;;;;;;;24.98;20.42;;;;;;;;;;5095583;28;20040;-82
2022/09/01 12:50:57;;;;;;;22.67;20.27;;;;;;;;;;5077005;28;20058;-82
2022/09/01 12:53:26;;;;;;;23.52;20.70;;;;;;;;;;5074372;28;20521;-82
2022/09/01 12:56:19;;;;;;;23.63;21.13;;;;;;;;;;5106701;27;20104;-81
2022/09/01 12:58:53;;;;;;;25.83;21.02;;;;;;;;;;5054997;28;20086;-78
2022/09/01 13:01:31;;;;;;;29.58;25.80;;;;;;;;;;5101245;28;20068;-81
2022/09/01 13:04:07;;;;;;;25.63;22.33;;;;;;;;;;5081844;28;20120;-80
2022/09/01 13:06:33;;;;;;;34.15;24.63;;;;;;;;;;5096984;28;20024;-80
2022/09/01 13:08:59;;;;;;;23.92;21.25;;;;;;;;;;5083516;28;20566;-81
2022/09/01 13:11:25;;;;;;;24.20;21.55;;;;;;;;;;5084470;28;20381;-78
2022/09/01 13:13:51;;;;;;;25.65;21.63;;;;;;;;;;5083269;28;20016;-78
2022/09/01 13:16:17;;;;;;;23.90;20.67;;;;;;;;;;5100510;28;20020;-78
2022/09/01 13:18:43;;;;;;;24.38;21.85;;;;;;;;;;5097642;28;20056;-78
2022/09/01 13:21:11;;;;;;;25.55;22.75;;;;;;;;;;5076051;28;20016;-79
2022/09/01 13:23:37;;;;;;;27.77;24.77;;;;;;;;;;5075944;28;20027;-77
2022/09/01 13:26:03;;;;;;;23.05;19.52;;;;;;;;;;5113035;27;20028;-76
2022/09/01 13:28:30;;;;;;;27.88;21.25;;;;;;;;;;5095944;28;20039;-82
2022/09/01 13:31:04;;;;;;;25.35;20.63;;;;;;;;;;5075091;28;20403;-84
2022/09/01 13:33:29;;;;;;;;;;;;;;;;;;5094980;28;20370;-82
2022/09/01 13:35:55;;;;;;;25.73;21.52;;;;;;;;;;5108580;28;19904;-79
2022/09/01 13:38:22;;;;;;;24.58;22.17;;;;;;;;;;5102195;28;20047;-81
2022/09/01 13:40:48;;;;;;;27.95;24.95;;;;;;;;;;5082052;28;20035;-79
2022/09/01 13:43:15;;;;;;;27.35;24.58;;;;;;;;;;5089614;28;20077;-79
2022/09/01 13:45:42;;;;;;;25.58;22.92;;;;;;;;;;5100845;28;20376;-84
2022/09/01 13:48:08;;;;;;;31.15;26.27;;;;;;;;;;5109234;27;21017;-80
2022/09/01 13:50:35;;;;;;;30.25;27.10;;;;;;;;;;5093948;28;20027;-81
2022/09/01 13:53:01;;;;;;;30.88;27.30;;;;;;;;;;5093876;28;20459;-83
2022/09/01 13:55:29;;;;;;;31.40;28.30;;;;;;;;;;5075007;28;20043;-82
2022/09/01 13:57:56;;;;;;;32.88;29.55;;;;;;;;;;5109901;27;20065;-81
2022/09/01 14:00:23;;;;;;;31.08;28.00;;;;;;;;;;5078039;28;20047;-80
2022/09/01 14:02:51;;;;;;;31.27;27.92;;;;;;;;;;5093732;28;20021;-78
2022/09/01 14:05:19;;;;;;;34.17;30.50;;;;;;;;;;5093710;28;20389;-79
2022/09/01 14:07:45;;;;;;;32.83;29.70;;;;;;;;;;5123463;27;20036;-78
2022/09/01 14:10:13;;;;;;;35.03;30.50;;;;;;;;;;5093129;28;20020;-80
2022/09/01 14:12:40;;;;;;;37.25;33.55;;;;;;;;;;5073598;28;20058;-79
2022/09/01 14:15:07;;;;;;;34.90;31.35;;;;;;;;;;5108988;28;20062;-79
2022/09/01 14:17:33;;;;;;;35.97;30.85;;;;;;;;;;5091046;28;20047;-80
2022/09/01 14:19:59;;;;;;;40.42;33.30;;;;;;;;;;5104234;27;20039;-79
2022/09/01 14:22:26;;;;;;;37.42;33.40;;;;;;;;;;5091623;28;20020;-78
2022/09/01 14:24:52;;;;;;;36.85;32.85;;;;;;;;;;5114100;27;20111;-78
2022/09/01 14:27:18;;;;;;;33.35;29.98;;;;;;;;;;5082108;28;20378;-77
2022/09/01 14:29:49;;;;;;;31.02;27.70;;;;;;;;;;5098003;28;20020;-77
2022/09/01 14:32:15;;;;;;;34.15;30.50;;;;;;;;;;5076484;28;20020;-75
2022/09/01 14:34:42;;;;;;;31.83;28.45;;;;;;;;;;5085136;28;20021;-78
2022/09/01 14:37:08;;;;;;;31.67;28.38;;;;;;;;;;5104360;27;20028;-79
2022/09/01 14:39:34;;;;;;;34.67;31.33;;;;;;;;;;5073837;28;20036;-80
2022/09/01 14:42:00;;;;;;;37.72;32.83;;;;;;;;;;5073903;28;20107;-78
2022/09/01 14:44:26;;;;;;;36.15;32.55;;;;;;;;;;5117382;27;20012;-78
2022/09/01 14:46:53;;;;;;;37.45;33.45;;;;;;;;;;5073779;28;20115;-78
2022/09/01 14:49:19;;;;;;;39.67;35.20;;;;;;;;;;5094144;28;20501;-78
2022/09/01 14:51:46;;;;;;;41.42;37.00;;;;;;;;;;5081770;28;20024;-79
2022/09/01 14:54:12;;;;;;;44.83;40.47;;;;;;;;;;5094406;28;20031;-78
2022/09/01 14:56:38;;;;;;;46.45;41.50;;;;;;;;;;5107012;28;20351;-77
2022/09/01 14:59:05;;;;;;;44.03;39.63;;;;;;;;;;5098104;28;20023;-78
2022/09/01 15:01:31;;;;;;;46.78;41.75;;;;;;;;;;5096781;28;20019;-78
2022/09/01 15:03:57;;;;;;;53.45;45.65;;;;;;;;;;5089954;28;20378;-78